sensor_id;sensor_type;location;lat;lon;timestamp;pressure;altitude;pressure_sealevel;temperature;humidity
63715;BME280;49858;48.956;9.076;2022-11-09T00:00:48;98376.59;;;11.88;100.00
63715;BME280;49858;48.956;9.076;2022-11-09T00:03:16;98368.91;;;12.04;100.00
63715;BME280;49858;48.956;9.076;2022-11-09T00:05:53;98371.91;;;11.92;100.00
63715;BME280;49858;48.956;9.076;2022-11-09T00:08:21;98374.41;;;12.00;100.00
63715;BME280;49858;48.956;9.076;2022-11-09T00:10:49;98367.94;;;12.19;100.00
63715;BME280;49858;48.956;9.076;2022-11-09T00:13:17;98366.25;;;12.11;100.00
63715;BME280;49858;48.956;9.076;2022-11-09T00:15:46;98364.16;;;12.01;100.00
63715;BME280;49858;48.956;9.076;2022-11-09T00:18:14;98355.41;;;12.25;100.00
63715;BME280;49858;48.956;9.076;2022-11-09T00:20:42;98351.94;;;12.32;100.00
63715;BME280;49858;48.956;9.076;2022-11-09T00:23:14;98358.19;;;12.63;100.00
63715;BME280;49858;48.956;9.076;2022-11-09T00:25:42;98340.78;;;12.96;100.00
63715;BME280;49858;48.956;9.076;2022-11-09T00:28:10;98354.31;;;13.08;100.00
63715;BME280;49858;48.956;9.076;2022-11-09T00:30:38;98353.16;;;13.61;100.00
63715;BME280;49858;48.956;9.076;2022-11-09T00:33:09;98359.16;;;13.77;100.00
63715;BME280;49858;48.956;9.076;2022-11-09T00:35:40;98358.72;;;13.20;100.00
63715;BME280;49858;48.956;9.076;2022-11-09T00:38:08;98358.34;;;13.18;100.00
63715;BME280;49858;48.956;9.076;2022-11-09T00:40:37;98357.13;;;13.67;100.00
63715;BME280;49858;48.956;9.076;2022-11-09T00:43:04;98354.78;;;13.65;100.00
63715;BME280;49858;48.956;9.076;2022-11-09T00:45:32;98357.28;;;13.92;100.00
63715;BME280;49858;48.956;9.076;2022-11-09T00:48:00;98353.34;;;13.34;100.00
63715;BME280;49858;48.956;9.076;2022-11-09T00:50:29;98357.88;;;13.12;100.00
63715;BME280;49858;48.956;9.076;2022-11-09T00:52:57;98354.41;;;13.19;100.00
63715;BME280;49858;48.956;9.076;2022-11-09T00:55:25;98353.44;;;13.45;100.00
63715;BME280;49858;48.956;9.076;2022-11-09T00:57:53;98348.47;;;13.72;100.00
63715;BME280;49858;48.956;9.076;2022-11-09T01:00:23;98349.88;;;13.44;100.00
63715;BME280;49858;48.956;9.076;2022-11-09T01:02:52;98341.75;;;13.73;100.00
63715;BME280;49858;48.956;9.076;2022-11-09T01:05:19;98351.66;;;13.74;100.00
63715;BME280;49858;48.956;9.076;2022-11-09T01:07:49;98345.34;;;13.77;100.00
63715;BME280;49858;48.956;9.076;2022-11-09T01:10:16;98351.72;;;13.85;100.00
63715;BME280;49858;48.956;9.076;2022-11-09T01:12:45;98348.84;;;13.67;100.00
63715;BME280;49858;48.956;9.076;2022-11-09T01:15:13;98350.06;;;13.73;100.00
63715;BME280;49858;48.956;9.076;2022-11-09T01:17:41;98360.81;;;13.85;100.00
63715;BME280;49858;48.956;9.076;2022-11-09T01:20:10;98347.53;;;13.46;100.00
63715;BME280;49858;48.956;9.076;2022-11-09T01:22:38;98363.94;;;13.25;100.00
63715;BME280;49858;48.956;9.076;2022-11-09T01:25:08;98352.78;;;13.14;100.00
63715;BME280;49858;48.956;9.076;2022-11-09T01:27:35;98354.09;;;13.27;100.00
63715;BME280;49858;48.956;9.076;2022-11-09T01:30:05;98353.31;;;13.27;100.00
63715;BME280;49858;48.956;9.076;2022-11-09T01:32:33;98375.78;;;12.88;100.00
63715;BME280;49858;48.956;9.076;2022-11-09T01:35:04;98371.22;;;13.47;100.00
63715;BME280;49858;48.956;9.076;2022-11-09T01:37:32;98388.13;;;13.39;100.00
63715;BME280;49858;48.956;9.076;2022-11-09T01:40:00;98372.16;;;13.73;100.00
63715;BME280;49858;48.956;9.076;2022-11-09T01:42:34;98377.59;;;13.55;100.00
63715;BME280;49858;48.956;9.076;2022-11-09T01:45:23;98369.75;;;13.13;100.00
63715;BME280;49858;48.956;9.076;2022-11-09T01:47:57;98384.16;;;12.95;100.00
63715;BME280;49858;48.956;9.076;2022-11-09T01:50:32;98396.97;;;12.40;100.00
63715;BME280;49858;48.956;9.076;2022-11-09T01:53:02;98396.84;;;12.33;100.00
63715;BME280;49858;48.956;9.076;2022-11-09T01:55:33;98391.22;;;11.92;100.00
63715;BME280;49858;48.956;9.076;2022-11-09T01:58:05;98386.88;;;12.21;100.00
63715;BME280;49858;48.956;9.076;2022-11-09T02:00:34;98378.69;;;12.28;100.00
63715;BME280;49858;48.956;9.076;2022-11-09T02:03:07;98375.28;;;13.16;100.00
63715;BME280;49858;48.956;9.076;2022-11-09T02:05:38;98379.22;;;13.63;100.00
63715;BME280;49858;48.956;9.076;2022-11-09T02:08:09;98389.84;;;13.58;100.00
63715;BME280;49858;48.956;9.076;2022-11-09T02:10:51;98384.81;;;13.70;100.00
63715;BME280;49858;48.956;9.076;2022-11-09T02:13:23;98391.16;;;13.78;100.00
63715;BME280;49858;48.956;9.076;2022-11-09T02:15:53;98387.13;;;13.20;100.00
63715;BME280;49858;48.956;9.076;2022-11-09T02:18:21;98387.25;;;13.82;100.00
63715;BME280;49858;48.956;9.076;2022-11-09T02:20:53;98387.03;;;13.50;100.00
63715;BME280;49858;48.956;9.076;2022-11-09T02:23:21;98405.78;;;12.52;100.00
63715;BME280;49858;48.956;9.076;2022-11-09T02:25:52;98406.13;;;11.64;100.00
63715;BME280;49858;48.956;9.076;2022-11-09T02:28:21;98411.78;;;12.28;100.00
63715;BME280;49858;48.956;9.076;2022-11-09T02:30:51;98404.06;;;12.41;100.00
63715;BME280;49858;48.956;9.076;2022-11-09T02:33:21;98401.75;;;12.80;100.00
63715;BME280;49858;48.956;9.076;2022-11-09T02:35:51;98400.41;;;13.45;100.00
63715;BME280;49858;48.956;9.076;2022-11-09T02:38:20;98402.53;;;13.21;100.00
63715;BME280;49858;48.956;9.076;2022-11-09T02:40:49;98414.72;;;13.17;100.00
63715;BME280;49858;48.956;9.076;2022-11-09T02:43:18;98410.00;;;12.43;100.00
63715;BME280;49858;48.956;9.076;2022-11-09T02:45:47;98407.09;;;12.02;100.00
63715;BME280;49858;48.956;9.076;2022-11-09T02:48:15;98420.19;;;11.33;100.00
63715;BME280;49858;48.956;9.076;2022-11-09T02:50:43;98423.84;;;11.90;100.00
63715;BME280;49858;48.956;9.076;2022-11-09T02:53:12;98423.75;;;12.09;100.00
63715;BME280;49858;48.956;9.076;2022-11-09T02:55:43;98422.31;;;11.92;100.00
63715;BME280;49858;48.956;9.076;2022-11-09T02:58:11;98473.75;;;12.08;100.00
63715;BME280;49858;48.956;9.076;2022-11-09T03:00:39;98483.59;;;12.35;100.00
63715;BME280;49858;48.956;9.076;2022-11-09T03:03:07;98466.28;;;12.38;100.00
63715;BME280;49858;48.956;9.076;2022-11-09T03:05:35;98438.88;;;12.86;100.00
63715;BME280;49858;48.956;9.076;2022-11-09T03:08:03;98445.53;;;12.82;100.00
63715;BME280;49858;48.956;9.076;2022-11-09T03:10:34;98438.38;;;12.77;100.00
63715;BME280;49858;48.956;9.076;2022-11-09T03:13:02;98444.00;;;11.21;100.00
63715;BME280;49858;48.956;9.076;2022-11-09T03:15:30;98437.91;;;12.08;100.00
63715;BME280;49858;48.956;9.076;2022-11-09T03:17:58;98439.44;;;12.35;100.00
63715;BME280;49858;48.956;9.076;2022-11-09T03:20:25;98434.16;;;12.23;100.00
63715;BME280;49858;48.956;9.076;2022-11-09T03:22:56;98440.19;;;12.02;100.00
63715;BME280;49858;48.956;9.076;2022-11-09T03:25:25;98443.28;;;11.74;100.00
63715;BME280;49858;48.956;9.076;2022-11-09T03:27:57;98445.28;;;11.50;100.00
63715;BME280;49858;48.956;9.076;2022-11-09T03:30:26;98448.34;;;11.45;100.00
63715;BME280;49858;48.956;9.076;2022-11-09T03:32:57;98435.91;;;12.05;100.00
63715;BME280;49858;48.956;9.076;2022-11-09T03:35:26;98444.25;;;12.42;100.00
63715;BME280;49858;48.956;9.076;2022-11-09T03:37:54;98443.34;;;12.64;100.00
63715;BME280;49858;48.956;9.076;2022-11-09T03:40:23;98446.41;;;12.89;100.00
63715;BME280;49858;48.956;9.076;2022-11-09T03:42:51;98449.31;;;12.36;100.00
63715;BME280;49858;48.956;9.076;2022-11-09T03:45:20;98437.50;;;12.69;100.00
63715;BME280;49858;48.956;9.076;2022-11-09T03:47:48;98446.09;;;12.94;100.00
63715;BME280;49858;48.956;9.076;2022-11-09T03:50:16;98444.47;;;12.60;100.00
63715;BME280;49858;48.956;9.076;2022-11-09T03:52:45;98435.19;;;12.75;100.00
63715;BME280;49858;48.956;9.076;2022-11-09T03:55:13;98431.94;;;13.03;100.00
63715;BME280;49858;48.956;9.076;2022-11-09T03:57:43;98435.97;;;13.09;100.00
63715;BME280;49858;48.956;9.076;2022-11-09T04:00:13;98433.03;;;12.91;100.00
63715;BME280;49858;48.956;9.076;2022-11-09T04:02:42;98435.56;;;12.73;100.00
63715;BME280;49858;48.956;9.076;2022-11-09T04:05:10;98440.19;;;12.02;100.00
63715;BME280;49858;48.956;9.076;2022-11-09T04:07:38;98442.16;;;12.01;100.00
63715;BME280;49858;48.956;9.076;2022-11-09T04:10:06;98444.25;;;11.85;100.00
63715;BME280;49858;48.956;9.076;2022-11-09T04:12:34;98442.31;;;11.86;100.00
63715;BME280;49858;48.956;9.076;2022-11-09T04:15:03;98455.88;;;11.48;100.00
63715;BME280;49858;48.956;9.076;2022-11-09T04:17:30;98457.91;;;12.01;100.00
63715;BME280;49858;48.956;9.076;2022-11-09T04:20:00;98452.53;;;12.12;100.00
63715;BME280;49858;48.956;9.076;2022-11-09T04:22:28;98461.50;;;12.05;100.00
63715;BME280;49858;48.956;9.076;2022-11-09T04:24:55;98457.38;;;11.92;100.00
63715;BME280;49858;48.956;9.076;2022-11-09T04:27:23;98460.91;;;11.92;100.00
63715;BME280;49858;48.956;9.076;2022-11-09T04:29:51;98456.34;;;12.03;100.00
63715;BME280;49858;48.956;9.076;2022-11-09T04:32:19;98465.31;;;11.74;100.00
63715;BME280;49858;48.956;9.076;2022-11-09T04:34:46;98472.06;;;11.76;100.00
63715;BME280;49858;48.956;9.076;2022-11-09T04:37:15;98470.22;;;11.84;100.00
63715;BME280;49858;48.956;9.076;2022-11-09T04:39:43;98475.19;;;11.75;100.00
63715;BME280;49858;48.956;9.076;2022-11-09T04:42:12;98481.91;;;11.77;100.00
63715;BME280;49858;48.956;9.076;2022-11-09T04:44:39;98474.25;;;12.17;100.00
63715;BME280;49858;48.956;9.076;2022-11-09T04:47:07;98462.03;;;12.14;100.00
63715;BME280;49858;48.956;9.076;2022-11-09T04:49:35;98465.00;;;12.02;100.00
63715;BME280;49858;48.956;9.076;2022-11-09T04:52:03;98466.97;;;12.01;100.00
63715;BME280;49858;48.956;9.076;2022-11-09T04:54:32;98472.56;;;12.09;100.00
63715;BME280;49858;48.956;9.076;2022-11-09T04:57:00;98462.44;;;11.90;100.00
63715;BME280;49858;48.956;9.076;2022-11-09T04:59:27;98457.19;;;11.81;100.00
63715;BME280;49858;48.956;9.076;2022-11-09T05:01:55;98458.16;;;12.19;100.00
63715;BME280;49858;48.956;9.076;2022-11-09T05:04:23;98461.31;;;11.94;100.00
63715;BME280;49858;48.956;9.076;2022-11-09T05:06:50;98445.88;;;11.86;100.00
63715;BME280;49858;48.956;9.076;2022-11-09T05:09:18;98453.91;;;11.98;100.00
63715;BME280;49858;48.956;9.076;2022-11-09T05:11:50;98456.13;;;12.16;100.00
63715;BME280;49858;48.956;9.076;2022-11-09T05:14:18;98460.25;;;12.29;100.00
63715;BME280;49858;48.956;9.076;2022-11-09T05:16:46;98459.38;;;12.51;100.00
63715;BME280;49858;48.956;9.076;2022-11-09T05:19:13;98444.88;;;12.28;100.00
63715;BME280;49858;48.956;9.076;2022-11-09T05:21:41;98448.06;;;12.30;100.00
63715;BME280;49858;48.956;9.076;2022-11-09T05:24:09;98450.88;;;12.34;100.00
63715;BME280;49858;48.956;9.076;2022-11-09T05:26:37;98455.44;;;12.52;100.00
63715;BME280;49858;48.956;9.076;2022-11-09T05:29:08;98449.69;;;12.35;100.00
63715;BME280;49858;48.956;9.076;2022-11-09T05:31:37;98446.16;;;12.08;100.00
63715;BME280;49858;48.956;9.076;2022-11-09T05:34:06;98434.94;;;12.20;100.00
63715;BME280;49858;48.956;9.076;2022-11-09T05:36:33;98440.19;;;12.02;100.00
63715;BME280;49858;48.956;9.076;2022-11-09T05:39:01;98438.34;;;12.10;100.00
63715;BME280;49858;48.956;9.076;2022-11-09T05:41:29;98448.72;;;12.20;100.00
63715;BME280;49858;48.956;9.076;2022-11-09T05:43:57;98448.03;;;12.60;100.00
63715;BME280;49858;48.956;9.076;2022-11-09T05:46:26;98452.56;;;12.75;100.00
63715;BME280;49858;48.956;9.076;2022-11-09T05:48:54;98453.09;;;12.54;100.00
63715;BME280;49858;48.956;9.076;2022-11-09T05:51:22;98449.13;;;12.52;100.00
63715;BME280;49858;48.956;9.076;2022-11-09T05:53:49;98441.13;;;12.43;100.00
63715;BME280;49858;48.956;9.076;2022-11-09T05:56:17;98445.59;;;12.51;100.00
63715;BME280;49858;48.956;9.076;2022-11-09T05:58:45;98446.56;;;12.36;100.00
63715;BME280;49858;48.956;9.076;2022-11-09T06:01:14;98448.19;;;11.84;100.00
63715;BME280;49858;48.956;9.076;2022-11-09T06:03:45;98451.06;;;11.68;100.00
63715;BME280;49858;48.956;9.076;2022-11-09T06:06:14;98454.22;;;11.67;100.00
63715;BME280;49858;48.956;9.076;2022-11-09T06:08:42;98461.84;;;11.77;100.00
63715;BME280;49858;48.956;9.076;2022-11-09T06:11:11;98456.59;;;11.68;100.00
63715;BME280;49858;48.956;9.076;2022-11-09T06:13:48;98458.00;;;11.59;100.00
63715;BME280;49858;48.956;9.076;2022-11-09T06:16:16;98470.53;;;11.56;100.00
63715;BME280;49858;48.956;9.076;2022-11-09T06:18:45;98478.19;;;11.66;100.00
63715;BME280;49858;48.956;9.076;2022-11-09T06:21:13;98482.97;;;11.46;100.00
63715;BME280;49858;48.956;9.076;2022-11-09T06:23:40;98487.38;;;11.74;100.00
63715;BME280;49858;48.956;9.076;2022-11-09T06:26:09;98507.53;;;12.01;100.00
63715;BME280;49858;48.956;9.076;2022-11-09T06:28:38;98498.81;;;11.76;100.00
63715;BME280;49858;48.956;9.076;2022-11-09T06:31:12;98500.84;;;11.79;100.00
63715;BME280;49858;48.956;9.076;2022-11-09T06:33:40;98500.72;;;11.95;100.00
63715;BME280;49858;48.956;9.076;2022-11-09T06:36:10;98494.00;;;11.92;100.00
63715;BME280;49858;48.956;9.076;2022-11-09T06:38:37;98498.97;;;11.83;100.00
63715;BME280;49858;48.956;9.076;2022-11-09T06:41:05;98507.16;;;12.29;100.00
63715;BME280;49858;48.956;9.076;2022-11-09T06:43:33;98510.59;;;12.83;100.00
63715;BME280;49858;48.956;9.076;2022-11-09T06:46:02;98512.75;;;12.36;100.00
63715;BME280;49858;48.956;9.076;2022-11-09T06:48:30;98529.97;;;12.86;100.00
63715;BME280;49858;48.956;9.076;2022-11-09T06:51:01;98547.00;;;12.62;100.00
63715;BME280;49858;48.956;9.076;2022-11-09T06:53:31;98577.19;;;11.78;100.00
63715;BME280;49858;48.956;9.076;2022-11-09T06:56:00;98595.28;;;11.57;100.00
63715;BME280;49858;48.956;9.076;2022-11-09T06:58:28;98609.97;;;11.41;100.00
63715;BME280;49858;48.956;9.076;2022-11-09T07:00:56;98615.47;;;11.41;100.00
63715;BME280;49858;48.956;9.076;2022-11-09T07:03:24;98593.63;;;11.94;100.00
63715;BME280;49858;48.956;9.076;2022-11-09T07:05:52;98582.94;;;11.70;100.00
63715;BME280;49858;48.956;9.076;2022-11-09T07:08:20;98580.66;;;11.95;100.00
63715;BME280;49858;48.956;9.076;2022-11-09T07:10:49;98584.81;;;11.85;100.00
63715;BME280;49858;48.956;9.076;2022-11-09T07:13:17;98584.63;;;11.97;100.00
63715;BME280;49858;48.956;9.076;2022-11-09T07:15:51;98581.50;;;12.22;100.00
63715;BME280;49858;48.956;9.076;2022-11-09T07:18:19;98564.72;;;12.61;100.00
63715;BME280;49858;48.956;9.076;2022-11-09T07:20:47;98559.16;;;12.87;100.00
63715;BME280;49858;48.956;9.076;2022-11-09T07:23:15;98549.81;;;12.95;100.00
63715;BME280;49858;48.956;9.076;2022-11-09T07:25:43;98552.81;;;12.26;100.00
63715;BME280;49858;48.956;9.076;2022-11-09T07:28:12;98559.53;;;12.02;100.00
63715;BME280;49858;48.956;9.076;2022-11-09T07:30:40;98561.78;;;11.97;100.00
63715;BME280;49858;48.956;9.076;2022-11-09T07:33:13;98555.66;;;12.07;100.00
63715;BME280;49858;48.956;9.076;2022-11-09T07:35:43;98560.47;;;11.87;100.00
63715;BME280;49858;48.956;9.076;2022-11-09T07:38:12;98564.53;;;11.74;100.00
63715;BME280;49858;48.956;9.076;2022-11-09T07:40:41;98561.63;;;11.86;100.00
63715;BME280;49858;48.956;9.076;2022-11-09T07:43:10;98574.31;;;11.71;100.00
63715;BME280;49858;48.956;9.076;2022-11-09T07:45:41;98573.53;;;11.48;100.00
63715;BME280;49858;48.956;9.076;2022-11-09T07:48:10;98572.13;;;12.03;100.00
63715;BME280;49858;48.956;9.076;2022-11-09T07:50:39;98580.00;;;11.59;100.00
63715;BME280;49858;48.956;9.076;2022-11-09T07:53:07;98582.03;;;11.62;100.00
63715;BME280;49858;48.956;9.076;2022-11-09T07:55:36;98587.28;;;11.48;100.00
63715;BME280;49858;48.956;9.076;2022-11-09T07:58:06;98596.91;;;11.81;100.00
63715;BME280;49858;48.956;9.076;2022-11-09T08:00:35;98581.66;;;11.83;100.00
63715;BME280;49858;48.956;9.076;2022-11-09T08:03:05;98575.69;;;11.81;100.00
63715;BME280;49858;48.956;9.076;2022-11-09T08:05:33;98568.50;;;11.99;100.00
63715;BME280;49858;48.956;9.076;2022-11-09T08:08:03;98566.28;;;11.82;100.00
63715;BME280;49858;48.956;9.076;2022-11-09T08:10:32;98566.59;;;12.00;100.00
63715;BME280;49858;48.956;9.076;2022-11-09T08:13:02;98570.00;;;11.93;100.00
63715;BME280;49858;48.956;9.076;2022-11-09T08:15:30;98565.53;;;11.85;100.00
63715;BME280;49858;48.956;9.076;2022-11-09T08:17:59;98554.78;;;11.80;100.00
63715;BME280;49858;48.956;9.076;2022-11-09T08:20:29;98553.91;;;11.76;100.00
63715;BME280;49858;48.956;9.076;2022-11-09T08:22:59;98552.53;;;12.09;100.00
63715;BME280;49858;48.956;9.076;2022-11-09T08:25:30;98553.59;;;12.00;100.00
63715;BME280;49858;48.956;9.076;2022-11-09T08:27:58;98559.75;;;12.17;100.00
63715;BME280;49858;48.956;9.076;2022-11-09T08:30:26;98555.41;;;12.16;100.00
63715;BME280;49858;48.956;9.076;2022-11-09T08:32:54;98557.25;;;12.08;100.00
63715;BME280;49858;48.956;9.076;2022-11-09T08:35:23;98562.09;;;12.15;100.00
63715;BME280;49858;48.956;9.076;2022-11-09T08:37:53;98561.75;;;12.46;100.00
63715;BME280;49858;48.956;9.076;2022-11-09T08:40:23;98555.22;;;12.28;100.00
63715;BME280;49858;48.956;9.076;2022-11-09T08:42:52;98566.72;;;12.34;100.00
63715;BME280;49858;48.956;9.076;2022-11-09T08:45:20;98568.78;;;12.40;100.00
63715;BME280;49858;48.956;9.076;2022-11-09T08:47:48;98565.53;;;12.35;100.00
63715;BME280;49858;48.956;9.076;2022-11-09T08:50:23;98565.28;;;12.43;100.00
63715;BME280;49858;48.956;9.076;2022-11-09T08:52:52;98565.03;;;12.82;100.00
63715;BME280;49858;48.956;9.076;2022-11-09T08:55:21;98570.94;;;12.84;100.00
63715;BME280;49858;48.956;9.076;2022-11-09T08:57:52;98569.00;;;12.85;100.00
63715;BME280;49858;48.956;9.076;2022-11-09T09:00:20;98576.38;;;12.77;100.00
63715;BME280;49858;48.956;9.076;2022-11-09T09:02:48;98578.78;;;12.78;100.00
63715;BME280;49858;48.956;9.076;2022-11-09T09:05:16;98579.63;;;12.56;100.00
63715;BME280;49858;48.956;9.076;2022-11-09T09:07:44;98577.28;;;12.85;100.00
63715;BME280;49858;48.956;9.076;2022-11-09T09:10:13;98583.00;;;12.99;100.00
63715;BME280;49858;48.956;9.076;2022-11-09T09:12:41;98574.06;;;13.43;100.00
63715;BME280;49858;48.956;9.076;2022-11-09T09:15:09;98574.44;;;13.41;100.00
63715;BME280;49858;48.956;9.076;2022-11-09T09:17:37;98571.28;;;13.80;100.00
63715;BME280;49858;48.956;9.076;2022-11-09T09:20:05;98561.97;;;13.58;100.00
63715;BME280;49858;48.956;9.076;2022-11-09T09:22:33;98562.84;;;13.66;100.00
63715;BME280;49858;48.956;9.076;2022-11-09T09:25:01;98570.81;;;13.34;100.00
63715;BME280;49858;48.956;9.076;2022-11-09T09:27:31;98573.56;;;13.34;100.00
63715;BME280;49858;48.956;9.076;2022-11-09T09:29:58;98589.31;;;13.29;100.00
63715;BME280;49858;48.956;9.076;2022-11-09T09:32:26;98587.69;;;13.62;100.00
63715;BME280;49858;48.956;9.076;2022-11-09T09:34:54;98579.75;;;13.98;100.00
63715;BME280;49858;48.956;9.076;2022-11-09T09:37:22;98588.25;;;14.23;100.00
63715;BME280;49858;48.956;9.076;2022-11-09T09:39:50;98579.69;;;14.42;100.00
63715;BME280;49858;48.956;9.076;2022-11-09T09:42:20;98591.63;;;14.53;100.00
63715;BME280;49858;48.956;9.076;2022-11-09T09:44:55;98587.63;;;15.06;100.00
63715;BME280;49858;48.956;9.076;2022-11-09T09:47:32;98583.38;;;15.41;100.00
63715;BME280;49858;48.956;9.076;2022-11-09T09:50:09;98588.16;;;15.44;100.00
63715;BME280;49858;48.956;9.076;2022-11-09T09:52:42;98589.00;;;15.66;100.00
63715;BME280;49858;48.956;9.076;2022-11-09T09:55:35;98594.56;;;15.69;100.00
63715;BME280;49858;48.956;9.076;2022-11-09T09:58:10;98591.63;;;14.50;100.00
63715;BME280;49858;48.956;9.076;2022-11-09T10:00:41;98594.25;;;14.94;100.00
63715;BME280;49858;48.956;9.076;2022-11-09T10:03:16;98588.53;;;14.62;100.00
63715;BME280;49858;48.956;9.076;2022-11-09T10:05:50;98592.06;;;14.55;100.00
63715;BME280;49858;48.956;9.076;2022-11-09T10:08:29;98592.44;;;14.50;100.00
63715;BME280;49858;48.956;9.076;2022-11-09T10:11:07;98586.03;;;14.46;100.00
63715;BME280;49858;48.956;9.076;2022-11-09T10:13:58;98596.13;;;14.21;100.00
63715;BME280;49858;48.956;9.076;2022-11-09T10:16:34;98596.47;;;13.71;100.00
63715;BME280;49858;48.956;9.076;2022-11-09T10:19:21;98589.78;;;14.17;100.00
63715;BME280;49858;48.956;9.076;2022-11-09T10:21:57;98589.75;;;14.13;100.00
63715;BME280;49858;48.956;9.076;2022-11-09T10:24:35;98581.22;;;14.36;100.00
63715;BME280;49858;48.956;9.076;2022-11-09T10:27:25;98578.13;;;14.45;100.00
63715;BME280;49858;48.956;9.076;2022-11-09T10:29:53;98578.09;;;14.41;100.00
63715;BME280;49858;48.956;9.076;2022-11-09T10:32:23;98582.00;;;14.33;100.00
63715;BME280;49858;48.956;9.076;2022-11-09T10:34:54;98576.13;;;15.07;100.00
63715;BME280;49858;48.956;9.076;2022-11-09T10:37:26;98574.09;;;14.94;100.00
63715;BME280;49858;48.956;9.076;2022-11-09T10:39:59;98566.50;;;14.80;100.00
63715;BME280;49858;48.956;9.076;2022-11-09T10:42:49;98561.31;;;14.71;100.00
63715;BME280;49858;48.956;9.076;2022-11-09T10:45:37;98552.88;;;15.30;100.00
63715;BME280;49858;48.956;9.076;2022-11-09T10:48:31;98553.13;;;15.00;100.00
63715;BME280;49858;48.956;9.076;2022-11-09T10:51:32;98555.56;;;15.08;100.00
63715;BME280;49858;48.956;9.076;2022-11-09T10:54:20;98559.50;;;15.07;100.00
63715;BME280;49858;48.956;9.076;2022-11-09T10:57:13;98554.44;;;15.27;100.00
63715;BME280;49858;48.956;9.076;2022-11-09T11:00:00;98551.94;;;14.94;100.00
63715;BME280;49858;48.956;9.076;2022-11-09T11:02:47;98547.66;;;15.11;100.00
63715;BME280;49858;48.956;9.076;2022-11-09T11:05:37;98555.59;;;15.16;100.00
63715;BME280;49858;48.956;9.076;2022-11-09T11:08:33;98542.59;;;15.45;100.00
63715;BME280;49858;48.956;9.076;2022-11-09T11:11:25;98531.59;;;15.84;100.00
63715;BME280;49858;48.956;9.076;2022-11-09T11:14:28;98532.78;;;15.79;100.00
63715;BME280;49858;48.956;9.076;2022-11-09T11:17:22;98540.88;;;14.97;100.00
63715;BME280;49858;48.956;9.076;2022-11-09T11:20:26;98531.47;;;15.27;100.00
63715;BME280;49858;48.956;9.076;2022-11-09T11:23:16;98525.16;;;15.41;100.00
63715;BME280;49858;48.956;9.076;2022-11-09T11:26:30;98524.03;;;15.59;100.00
63715;BME280;49858;48.956;9.076;2022-11-09T11:29:28;98520.47;;;15.66;100.00
63715;BME280;49858;48.956;9.076;2022-11-09T11:32:17;98519.31;;;15.74;100.00
63715;BME280;49858;48.956;9.076;2022-11-09T11:35:11;98517.63;;;15.38;100.00
63715;BME280;49858;48.956;9.076;2022-11-09T11:38:08;98519.94;;;15.07;100.00
63715;BME280;49858;48.956;9.076;2022-11-09T11:41:09;98520.03;;;15.50;100.00
63715;BME280;49858;48.956;9.076;2022-11-09T11:44:02;98517.59;;;15.23;100.00
63715;BME280;49858;48.956;9.076;2022-11-09T11:47:00;98519.97;;;15.28;100.00
63715;BME280;49858;48.956;9.076;2022-11-09T11:49:59;98514.97;;;15.91;100.00
63715;BME280;49858;48.956;9.076;2022-11-09T11:53:01;98521.63;;;15.40;100.00
63715;BME280;49858;48.956;9.076;2022-11-09T11:56:02;98515.28;;;15.47;100.00
63715;BME280;49858;48.956;9.076;2022-11-09T12:02:26;98516.91;;;15.66;100.00
63715;BME280;49858;48.956;9.076;2022-11-09T12:05:42;98505.44;;;15.92;100.00
63715;BME280;49858;48.956;9.076;2022-11-09T12:08:42;98499.50;;;16.04;100.00
63715;BME280;49858;48.956;9.076;2022-11-09T12:11:46;98502.63;;;15.56;100.00
63715;BME280;49858;48.956;9.076;2022-11-09T12:14:44;98505.03;;;15.69;100.00
63715;BME280;49858;48.956;9.076;2022-11-09T12:17:39;98497.13;;;15.81;100.00
63715;BME280;49858;48.956;9.076;2022-11-09T12:20:31;98499.84;;;15.56;100.00
63715;BME280;49858;48.956;9.076;2022-11-09T12:23:31;98491.59;;;15.78;100.00
63715;BME280;49858;48.956;9.076;2022-11-09T12:26:24;98490.78;;;15.99;100.00
63715;BME280;49858;48.956;9.076;2022-11-09T12:29:19;98487.97;;;16.27;100.00
63715;BME280;49858;48.956;9.076;2022-11-09T12:32:13;98484.34;;;16.45;100.00
63715;BME280;49858;48.956;9.076;2022-11-09T12:35:19;98480.44;;;16.21;100.00
63715;BME280;49858;48.956;9.076;2022-11-09T12:38:12;98483.53;;;16.58;100.00
63715;BME280;49858;48.956;9.076;2022-11-09T12:41:02;98490.38;;;16.04;100.00
63715;BME280;49858;48.956;9.076;2022-11-09T12:43:53;98477.66;;;16.14;100.00
63715;BME280;49858;48.956;9.076;2022-11-09T12:46:44;98489.97;;;15.63;100.00
63715;BME280;49858;48.956;9.076;2022-11-09T12:49:35;98476.91;;;15.88;100.00
63715;BME280;49858;48.956;9.076;2022-11-09T12:52:26;98488.78;;;16.17;100.00
63715;BME280;49858;48.956;9.076;2022-11-09T12:55:15;98486.34;;;16.41;100.00
63715;BME280;49858;48.956;9.076;2022-11-09T12:58:02;98487.97;;;15.45;100.00
63715;BME280;49858;48.956;9.076;2022-11-09T13:00:52;98488.00;;;15.74;100.00
63715;BME280;49858;48.956;9.076;2022-11-09T13:03:53;98489.56;;;16.28;100.00
63715;BME280;49858;48.956;9.076;2022-11-09T13:06:40;98481.25;;;16.10;100.00
63715;BME280;49858;48.956;9.076;2022-11-09T13:09:27;98492.75;;;16.05;100.00
63715;BME280;49858;48.956;9.076;2022-11-09T13:12:32;98488.78;;;15.99;100.00
63715;BME280;49858;48.956;9.076;2022-11-09T13:15:22;98508.19;;;15.53;100.00
63715;BME280;49858;48.956;9.076;2022-11-09T13:18:22;98501.00;;;15.27;100.00
63715;BME280;49858;48.956;9.076;2022-11-09T13:21:33;98502.19;;;15.47;100.00
63715;BME280;49858;48.956;9.076;2022-11-09T13:24:48;98497.88;;;15.50;100.00
63715;BME280;49858;48.956;9.076;2022-11-09T13:27:40;98499.91;;;15.92;100.00
63715;BME280;49858;48.956;9.076;2022-11-09T13:30:42;98495.41;;;16.73;100.00